Terminal Aerodrome Forecast
Issued by NWS

Home | Current Version | Previous Version | Text Only | Print | Product List | Glossary On
Versions: 1 2 3 4 5 6 7 8 9 10 11 12 13 14 15 16 17 18 19 20 21 22 23
000
FTUS41 KBUF 261120
TAFJHW
TAF
KJHW 261120Z 2612/2712 17005KT P6SM SCT050
     FM261400 19008KT P6SM VCSH BKN045 OVC100
     FM261800 22009KT 6SM -SHRA VCTS BKN035CB OVC100
     FM262100 23005KT P6SM BKN035 BKN100
     FM270100 VRB03KT P6SM BKN120
      AMD LTD TO CLD VIS AND WIND=

USA.gov is the U.S. government's official web portal to all federal, state and local government web resources and services.